sensor_id;sensor_type;location;lat;lon;timestamp;pressure;altitude;pressure_sealevel;temperature;humidity
81397;BME280;70852;49.908;8.126;2024-02-15T00:01:29;100654.59;;;9.83;98.44
81397;BME280;70852;49.908;8.126;2024-02-15T00:03:55;100644.66;;;9.82;97.73
81397;BME280;70852;49.908;8.126;2024-02-15T00:06:20;100654.38;;;9.80;97.93
81397;BME280;70852;49.908;8.126;2024-02-15T00:08:45;100641.69;;;9.79;97.84
81397;BME280;70852;49.908;8.126;2024-02-15T00:11:14;100642.63;;;9.74;98.02
81397;BME280;70852;49.908;8.126;2024-02-15T00:13:42;100640.38;;;9.63;97.95
81397;BME280;70852;49.908;8.126;2024-02-15T00:16:15;100635.75;;;9.58;97.86
81397;BME280;70852;49.908;8.126;2024-02-15T00:18:42;100637.16;;;9.55;98.37
81397;BME280;70852;49.908;8.126;2024-02-15T00:21:08;100639.22;;;9.50;97.54
81397;BME280;70852;49.908;8.126;2024-02-15T00:23:33;100638.47;;;9.44;97.77
81397;BME280;70852;49.908;8.126;2024-02-15T00:25:59;100632.75;;;9.41;97.82
81397;BME280;70852;49.908;8.126;2024-02-15T00:28:26;100639.16;;;9.36;97.47
81397;BME280;70852;49.908;8.126;2024-02-15T00:30:54;100640.81;;;9.37;97.02
81397;BME280;70852;49.908;8.126;2024-02-15T00:33:21;100640.59;;;9.34;97.14
81397;BME280;70852;49.908;8.126;2024-02-15T00:35:47;100637.63;;;9.30;97.41
81397;BME280;70852;49.908;8.126;2024-02-15T00:38:19;100645.38;;;9.28;97.59
81397;BME280;70852;49.908;8.126;2024-02-15T00:40:44;100640.47;;;9.25;97.52
81397;BME280;70852;49.908;8.126;2024-02-15T00:43:10;100634.66;;;9.27;97.73
81397;BME280;70852;49.908;8.126;2024-02-15T00:45:38;100643.22;;;9.25;97.83
81397;BME280;70852;49.908;8.126;2024-02-15T00:48:05;100642.69;;;9.23;97.79
81397;BME280;70852;49.908;8.126;2024-02-15T00:50:31;100643.31;;;9.20;97.66
81397;BME280;70852;49.908;8.126;2024-02-15T00:52:56;100642.81;;;9.18;97.68
81397;BME280;70852;49.908;8.126;2024-02-15T00:55:22;100653.06;;;9.12;97.44
81397;BME280;70852;49.908;8.126;2024-02-15T00:57:47;100642.16;;;9.07;97.52
81397;BME280;70852;49.908;8.126;2024-02-15T01:00:15;100647.13;;;9.05;97.36
81397;BME280;70852;49.908;8.126;2024-02-15T01:02:40;100642.75;;;9.04;97.86
81397;BME280;70852;49.908;8.126;2024-02-15T01:05:08;100641.03;;;9.08;97.59
81397;BME280;70852;49.908;8.126;2024-02-15T01:07:35;100642.38;;;9.11;97.78
81397;BME280;70852;49.908;8.126;2024-02-15T01:10:01;100640.41;;;9.11;97.80
81397;BME280;70852;49.908;8.126;2024-02-15T01:12:29;100641.47;;;9.15;98.38
81397;BME280;70852;49.908;8.126;2024-02-15T01:14:54;100639.44;;;9.21;98.04
81397;BME280;70852;49.908;8.126;2024-02-15T01:17:22;100638.22;;;9.27;97.99
81397;BME280;70852;49.908;8.126;2024-02-15T01:19:52;100639.34;;;9.26;98.47
81397;BME280;70852;49.908;8.126;2024-02-15T01:22:18;100637.22;;;9.37;97.78
81397;BME280;70852;49.908;8.126;2024-02-15T01:24:45;100629.97;;;9.27;98.25
81397;BME280;70852;49.908;8.126;2024-02-15T01:27:11;100627.22;;;9.27;98.00
81397;BME280;70852;49.908;8.126;2024-02-15T01:29:38;100634.13;;;9.25;98.18
81397;BME280;70852;49.908;8.126;2024-02-15T01:32:06;100636.06;;;9.24;98.53
81397;BME280;70852;49.908;8.126;2024-02-15T01:34:31;100642.41;;;9.25;98.25
81397;BME280;70852;49.908;8.126;2024-02-15T01:36:57;100639.88;;;9.28;97.99
81397;BME280;70852;49.908;8.126;2024-02-15T01:39:22;100637.81;;;9.34;97.84
81397;BME280;70852;49.908;8.126;2024-02-15T01:41:48;100638.34;;;9.36;97.79
81397;BME280;70852;49.908;8.126;2024-02-15T01:44:21;100631.41;;;9.38;98.10
81397;BME280;70852;49.908;8.126;2024-02-15T01:46:49;100631.19;;;9.35;98.58
81397;BME280;70852;49.908;8.126;2024-02-15T01:49:14;100622.41;;;9.33;98.47
81397;BME280;70852;49.908;8.126;2024-02-15T01:51:41;100633.44;;;9.33;98.39
81397;BME280;70852;49.908;8.126;2024-02-15T01:54:11;100639.53;;;9.16;98.52
81397;BME280;70852;49.908;8.126;2024-02-15T01:56:40;100635.72;;;9.12;98.59
81397;BME280;70852;49.908;8.126;2024-02-15T01:59:08;100635.28;;;9.05;98.33
81397;BME280;70852;49.908;8.126;2024-02-15T02:01:35;100631.31;;;8.97;98.45
81397;BME280;70852;49.908;8.126;2024-02-15T02:04:00;100635.56;;;8.90;98.31
81397;BME280;70852;49.908;8.126;2024-02-15T02:06:30;100634.56;;;8.80;98.12
81397;BME280;70852;49.908;8.126;2024-02-15T02:08:55;100642.41;;;8.73;98.34
81397;BME280;70852;49.908;8.126;2024-02-15T02:11:24;100638.41;;;8.66;99.21
81397;BME280;70852;49.908;8.126;2024-02-15T02:13:52;100638.44;;;8.61;99.89
81397;BME280;70852;49.908;8.126;2024-02-15T02:16:28;100642.84;;;8.62;99.15
81397;BME280;70852;49.908;8.126;2024-02-15T02:18:56;100639.88;;;8.58;99.43
81397;BME280;70852;49.908;8.126;2024-02-15T02:21:23;100632.75;;;8.57;99.37
81397;BME280;70852;49.908;8.126;2024-02-15T02:23:53;100638.03;;;8.54;99.41
81397;BME280;70852;49.908;8.126;2024-02-15T02:26:23;100632.56;;;8.49;99.12
81397;BME280;70852;49.908;8.126;2024-02-15T02:28:49;100627.06;;;8.49;98.94
81397;BME280;70852;49.908;8.126;2024-02-15T02:31:17;100627.22;;;8.38;98.99
81397;BME280;70852;49.908;8.126;2024-02-15T02:33:47;100627.59;;;8.27;99.56
81397;BME280;70852;49.908;8.126;2024-02-15T02:36:25;100625.75;;;8.22;99.39
81397;BME280;70852;49.908;8.126;2024-02-15T02:38:54;100616.75;;;8.17;100.00
81397;BME280;70852;49.908;8.126;2024-02-15T02:41:19;100612.47;;;8.05;99.49
81397;BME280;70852;49.908;8.126;2024-02-15T02:43:45;100614.44;;;8.05;99.45
81397;BME280;70852;49.908;8.126;2024-02-15T02:46:12;100620.00;;;8.00;99.00
81397;BME280;70852;49.908;8.126;2024-02-15T02:48:39;100626.97;;;7.92;99.01
81397;BME280;70852;49.908;8.126;2024-02-15T02:51:05;100622.56;;;7.91;99.11
81397;BME280;70852;49.908;8.126;2024-02-15T02:53:37;100621.81;;;7.86;99.83
81397;BME280;70852;49.908;8.126;2024-02-15T02:56:02;100623.53;;;7.82;100.00
81397;BME280;70852;49.908;8.126;2024-02-15T02:58:29;100616.94;;;7.78;100.00
81397;BME280;70852;49.908;8.126;2024-02-15T03:00:55;100619.47;;;7.74;100.00
81397;BME280;70852;49.908;8.126;2024-02-15T03:03:25;100621.09;;;7.75;100.00
81397;BME280;70852;49.908;8.126;2024-02-15T03:05:53;100620.53;;;7.78;100.00
81397;BME280;70852;49.908;8.126;2024-02-15T03:08:19;100617.25;;;7.76;99.79
81397;BME280;70852;49.908;8.126;2024-02-15T03:10:46;100627.13;;;7.77;99.12
81397;BME280;70852;49.908;8.126;2024-02-15T03:13:14;100626.59;;;7.75;98.92
81397;BME280;70852;49.908;8.126;2024-02-15T03:15:42;100637.84;;;7.79;99.08
81397;BME280;70852;49.908;8.126;2024-02-15T03:18:11;100624.09;;;7.79;99.12
81397;BME280;70852;49.908;8.126;2024-02-15T03:20:37;100619.66;;;7.83;99.03
81397;BME280;70852;49.908;8.126;2024-02-15T03:23:02;100617.66;;;7.88;99.06
81397;BME280;70852;49.908;8.126;2024-02-15T03:25:28;100618.75;;;7.87;98.60
81397;BME280;70852;49.908;8.126;2024-02-15T03:27:58;100615.47;;;7.85;98.57
81397;BME280;70852;49.908;8.126;2024-02-15T03:30:27;100616.91;;;7.83;98.41
81397;BME280;70852;49.908;8.126;2024-02-15T03:32:56;100618.75;;;7.87;98.37
81397;BME280;70852;49.908;8.126;2024-02-15T03:35:27;100613.56;;;7.86;98.73
81397;BME280;70852;49.908;8.126;2024-02-15T03:37:53;100607.19;;;7.90;97.96
81397;BME280;70852;49.908;8.126;2024-02-15T03:40:19;100611.56;;;7.91;96.96
81397;BME280;70852;49.908;8.126;2024-02-15T03:42:48;100612.72;;;7.85;96.91
81397;BME280;70852;49.908;8.126;2024-02-15T03:45:15;100609.97;;;7.85;97.18
81397;BME280;70852;49.908;8.126;2024-02-15T03:47:43;100609.97;;;7.85;96.99
81397;BME280;70852;49.908;8.126;2024-02-15T03:50:11;100610.47;;;7.92;97.17
81397;BME280;70852;49.908;8.126;2024-02-15T03:52:40;100602.56;;;7.86;97.37
81397;BME280;70852;49.908;8.126;2024-02-15T03:55:06;100597.00;;;7.91;97.00
81397;BME280;70852;49.908;8.126;2024-02-15T03:57:32;100607.75;;;7.87;96.91
81397;BME280;70852;49.908;8.126;2024-02-15T03:59:59;100606.06;;;7.91;96.80
81397;BME280;70852;49.908;8.126;2024-02-15T04:02:28;100611.03;;;7.89;96.80
81397;BME280;70852;49.908;8.126;2024-02-15T04:04:57;100610.50;;;7.87;97.38
81397;BME280;70852;49.908;8.126;2024-02-15T04:07:25;100609.69;;;7.87;97.01
81397;BME280;70852;49.908;8.126;2024-02-15T04:09:54;100616.25;;;7.91;97.23
81397;BME280;70852;49.908;8.126;2024-02-15T04:12:22;100619.81;;;7.91;96.43
81397;BME280;70852;49.908;8.126;2024-02-15T04:14:50;100616.53;;;7.89;96.53
81397;BME280;70852;49.908;8.126;2024-02-15T04:17:16;100617.13;;;7.86;97.72
81397;BME280;70852;49.908;8.126;2024-02-15T04:19:48;100615.81;;;7.84;97.70
81397;BME280;70852;49.908;8.126;2024-02-15T04:22:15;100619.53;;;7.93;97.07
81397;BME280;70852;49.908;8.126;2024-02-15T04:24:44;100620.16;;;7.85;96.87
81397;BME280;70852;49.908;8.126;2024-02-15T04:27:12;100612.94;;;7.94;97.27
81397;BME280;70852;49.908;8.126;2024-02-15T04:29:41;100618.34;;;7.99;97.04
81397;BME280;70852;49.908;8.126;2024-02-15T04:32:12;100604.88;;;7.97;97.21
81397;BME280;70852;49.908;8.126;2024-02-15T04:34:40;100611.38;;;8.06;97.01
81397;BME280;70852;49.908;8.126;2024-02-15T04:37:06;100603.13;;;8.06;97.34
81397;BME280;70852;49.908;8.126;2024-02-15T04:39:34;100608.41;;;8.03;97.39
81397;BME280;70852;49.908;8.126;2024-02-15T04:42:02;100595.47;;;8.03;98.18
81397;BME280;70852;49.908;8.126;2024-02-15T04:44:32;100595.91;;;8.11;97.79
81397;BME280;70852;49.908;8.126;2024-02-15T04:47:00;100590.72;;;8.09;98.14
81397;BME280;70852;49.908;8.126;2024-02-15T04:49:28;100587.13;;;8.08;98.17
81397;BME280;70852;49.908;8.126;2024-02-15T04:51:54;100586.47;;;8.17;98.14
81397;BME280;70852;49.908;8.126;2024-02-15T04:54:22;100586.28;;;8.13;97.84
81397;BME280;70852;49.908;8.126;2024-02-15T04:56:50;100591.69;;;8.18;96.91
81397;BME280;70852;49.908;8.126;2024-02-15T04:59:24;100601.88;;;8.18;97.22
81397;BME280;70852;49.908;8.126;2024-02-15T05:01:54;100596.06;;;8.19;97.16
81397;BME280;70852;49.908;8.126;2024-02-15T05:04:22;100594.69;;;8.22;97.37
81397;BME280;70852;49.908;8.126;2024-02-15T05:06:49;100599.81;;;8.28;97.52
81397;BME280;70852;49.908;8.126;2024-02-15T05:09:17;100596.50;;;8.31;97.17
81397;BME280;70852;49.908;8.126;2024-02-15T05:11:46;100594.00;;;8.30;97.08
81397;BME280;70852;49.908;8.126;2024-02-15T05:14:14;100587.13;;;8.32;97.28
81397;BME280;70852;49.908;8.126;2024-02-15T05:16:49;100590.13;;;8.31;97.85
81397;BME280;70852;49.908;8.126;2024-02-15T05:19:18;100593.56;;;8.23;97.73
81397;BME280;70852;49.908;8.126;2024-02-15T05:21:46;100592.16;;;8.25;97.65
81397;BME280;70852;49.908;8.126;2024-02-15T05:24:16;100593.47;;;8.28;97.21
81397;BME280;70852;49.908;8.126;2024-02-15T05:26:43;100591.53;;;8.28;95.80
81397;BME280;70852;49.908;8.126;2024-02-15T05:29:16;100587.13;;;8.32;96.49
81397;BME280;70852;49.908;8.126;2024-02-15T05:31:46;100583.56;;;8.32;96.95
81397;BME280;70852;49.908;8.126;2024-02-15T05:34:12;100579.13;;;8.31;97.63
81397;BME280;70852;49.908;8.126;2024-02-15T05:36:40;100583.78;;;8.35;97.84
81397;BME280;70852;49.908;8.126;2024-02-15T05:39:05;100587.84;;;8.38;97.85
81397;BME280;70852;49.908;8.126;2024-02-15T05:41:33;100593.88;;;8.40;98.16
81397;BME280;70852;49.908;8.126;2024-02-15T05:44:01;100589.44;;;8.44;98.22
81397;BME280;70852;49.908;8.126;2024-02-15T05:46:34;100592.19;;;8.44;98.41
81397;BME280;70852;49.908;8.126;2024-02-15T05:49:05;100595.97;;;8.48;98.27
81397;BME280;70852;49.908;8.126;2024-02-15T05:51:33;100587.94;;;8.52;98.09
81397;BME280;70852;49.908;8.126;2024-02-15T05:54:01;100594.94;;;8.44;97.56
81397;BME280;70852;49.908;8.126;2024-02-15T05:56:26;100591.13;;;8.40;96.99
81397;BME280;70852;49.908;8.126;2024-02-15T05:58:53;100592.88;;;8.36;97.74
81397;BME280;70852;49.908;8.126;2024-02-15T06:01:22;100583.47;;;8.37;97.73
81397;BME280;70852;49.908;8.126;2024-02-15T06:03:50;100588.69;;;8.38;97.89
81397;BME280;70852;49.908;8.126;2024-02-15T06:06:17;100581.47;;;8.42;98.01
81397;BME280;70852;49.908;8.126;2024-02-15T06:08:46;100593.31;;;8.43;97.40
81397;BME280;70852;49.908;8.126;2024-02-15T06:11:11;100598.13;;;8.32;98.25
81397;BME280;70852;49.908;8.126;2024-02-15T06:13:39;100599.41;;;8.40;98.26
81397;BME280;70852;49.908;8.126;2024-02-15T06:16:06;100602.56;;;8.28;98.10
81397;BME280;70852;49.908;8.126;2024-02-15T06:18:35;100586.00;;;8.33;98.05
81397;BME280;70852;49.908;8.126;2024-02-15T06:21:02;100589.72;;;8.42;97.67
81397;BME280;70852;49.908;8.126;2024-02-15T06:23:31;100586.22;;;8.37;98.22
81397;BME280;70852;49.908;8.126;2024-02-15T06:25:58;100565.13;;;8.32;98.79
81397;BME280;70852;49.908;8.126;2024-02-15T06:28:27;100563.41;;;8.36;98.89
81397;BME280;70852;49.908;8.126;2024-02-15T06:31:11;100560.97;;;8.35;98.74
81397;BME280;70852;49.908;8.126;2024-02-15T06:33:56;100558.22;;;8.30;99.07
81397;BME280;70852;49.908;8.126;2024-02-15T06:39:30;100555.34;;;8.21;100.00
81397;BME280;70852;49.908;8.126;2024-02-15T06:42:14;100558.91;;;8.22;100.00
81397;BME280;70852;49.908;8.126;2024-02-15T06:44:45;100563.31;;;8.23;100.00
81397;BME280;70852;49.908;8.126;2024-02-15T06:47:10;100566.03;;;8.23;100.00
81397;BME280;70852;49.908;8.126;2024-02-15T06:49:42;100567.97;;;8.22;100.00
81397;BME280;70852;49.908;8.126;2024-02-15T06:52:13;100569.91;;;8.22;99.79
81397;BME280;70852;49.908;8.126;2024-02-15T06:54:41;100563.06;;;8.19;99.39
81397;BME280;70852;49.908;8.126;2024-02-15T06:57:10;100568.28;;;8.21;98.84
81397;BME280;70852;49.908;8.126;2024-02-15T06:59:37;100567.69;;;8.24;98.68
81397;BME280;70852;49.908;8.126;2024-02-15T07:02:04;100574.00;;;8.24;98.80
81397;BME280;70852;49.908;8.126;2024-02-15T07:04:33;100573.72;;;8.26;98.66
81397;BME280;70852;49.908;8.126;2024-02-15T07:06:58;100581.34;;;8.29;98.50
81397;BME280;70852;49.908;8.126;2024-02-15T07:09:27;100580.03;;;8.26;97.60
81397;BME280;70852;49.908;8.126;2024-02-15T07:11:53;100582.47;;;8.28;97.87
81397;BME280;70852;49.908;8.126;2024-02-15T07:14:18;100581.97;;;8.26;97.62
81397;BME280;70852;49.908;8.126;2024-02-15T07:16:48;100588.06;;;8.23;98.03
81397;BME280;70852;49.908;8.126;2024-02-15T07:19:15;100584.09;;;8.29;97.45
81397;BME280;70852;49.908;8.126;2024-02-15T07:21:43;100588.47;;;8.35;97.56
81397;BME280;70852;49.908;8.126;2024-02-15T07:24:11;100588.38;;;8.40;97.54
81397;BME280;70852;49.908;8.126;2024-02-15T07:26:37;100592.03;;;8.35;97.29
81397;BME280;70852;49.908;8.126;2024-02-15T07:29:02;100592.34;;;8.34;97.61
81397;BME280;70852;49.908;8.126;2024-02-15T07:31:32;100598.81;;;8.43;97.69
81397;BME280;70852;49.908;8.126;2024-02-15T07:33:58;100589.06;;;8.51;97.26
81397;BME280;70852;49.908;8.126;2024-02-15T07:36:24;100595.22;;;8.61;97.05
81397;BME280;70852;49.908;8.126;2024-02-15T07:38:50;100593.94;;;8.72;96.71
81397;BME280;70852;49.908;8.126;2024-02-15T07:41:24;100590.09;;;8.73;96.42
81397;BME280;70852;49.908;8.126;2024-02-15T07:43:52;100593.78;;;8.82;96.55
81397;BME280;70852;49.908;8.126;2024-02-15T07:46:20;100587.91;;;8.89;96.12
81397;BME280;70852;49.908;8.126;2024-02-15T07:48:48;100591.97;;;8.92;96.32
81397;BME280;70852;49.908;8.126;2024-02-15T07:51:21;100599.22;;;8.88;96.31
81397;BME280;70852;49.908;8.126;2024-02-15T07:53:49;100598.59;;;8.91;96.52
81397;BME280;70852;49.908;8.126;2024-02-15T07:56:18;100599.19;;;9.06;96.33
81397;BME280;70852;49.908;8.126;2024-02-15T07:58:52;100613.78;;;9.07;95.95
81397;BME280;70852;49.908;8.126;2024-02-15T08:01:20;100605.22;;;9.08;96.03
81397;BME280;70852;49.908;8.126;2024-02-15T08:03:50;100613.84;;;9.02;95.71
81397;BME280;70852;49.908;8.126;2024-02-15T08:06:16;100613.66;;;8.98;95.38
81397;BME280;70852;49.908;8.126;2024-02-15T08:08:47;100610.97;;;8.93;95.83
81397;BME280;70852;49.908;8.126;2024-02-15T08:11:19;100609.78;;;8.99;95.12
81397;BME280;70852;49.908;8.126;2024-02-15T08:13:45;100609.63;;;8.91;95.54
81397;BME280;70852;49.908;8.126;2024-02-15T08:16:24;100607.44;;;9.06;95.51
81397;BME280;70852;49.908;8.126;2024-02-15T08:18:52;100600.16;;;9.29;94.13
81397;BME280;70852;49.908;8.126;2024-02-15T08:21:25;100608.38;;;9.48;93.66
81397;BME280;70852;49.908;8.126;2024-02-15T08:23:50;100611.22;;;9.57;93.02
81397;BME280;70852;49.908;8.126;2024-02-15T08:26:15;100612.16;;;9.66;93.49
81397;BME280;70852;49.908;8.126;2024-02-15T08:28:43;100608.81;;;9.82;93.38
81397;BME280;70852;49.908;8.126;2024-02-15T08:31:10;100598.56;;;9.97;92.74
81397;BME280;70852;49.908;8.126;2024-02-15T08:33:42;100595.59;;;10.07;92.75
81397;BME280;70852;49.908;8.126;2024-02-15T08:36:11;100599.16;;;10.07;91.91
81397;BME280;70852;49.908;8.126;2024-02-15T08:38:39;100594.59;;;10.03;91.69
81397;BME280;70852;49.908;8.126;2024-02-15T08:41:06;100597.13;;;10.13;91.50
81397;BME280;70852;49.908;8.126;2024-02-15T08:43:33;100602.25;;;10.19;90.88
81397;BME280;70852;49.908;8.126;2024-02-15T08:46:01;100596.53;;;10.30;91.24
81397;BME280;70852;49.908;8.126;2024-02-15T08:48:26;100603.28;;;10.37;91.75
81397;BME280;70852;49.908;8.126;2024-02-15T08:50:54;100596.94;;;10.37;90.87
81397;BME280;70852;49.908;8.126;2024-02-15T08:53:24;100597.84;;;10.32;91.37
81397;BME280;70852;49.908;8.126;2024-02-15T08:55:50;100603.56;;;10.36;90.65
81397;BME280;70852;49.908;8.126;2024-02-15T08:58:22;100607.91;;;10.50;91.01
81397;BME280;70852;49.908;8.126;2024-02-15T09:00:51;100598.84;;;10.72;90.47
81397;BME280;70852;49.908;8.126;2024-02-15T09:03:19;100594.47;;;10.93;90.02
81397;BME280;70852;49.908;8.126;2024-02-15T09:05:44;100592.19;;;11.18;88.63
81397;BME280;70852;49.908;8.126;2024-02-15T09:08:09;100589.38;;;11.31;88.27
81397;BME280;70852;49.908;8.126;2024-02-15T09:10:37;100589.91;;;11.42;87.20
81397;BME280;70852;49.908;8.126;2024-02-15T09:13:04;100589.75;;;11.47;87.65
81397;BME280;70852;49.908;8.126;2024-02-15T09:15:32;100588.63;;;11.48;88.03
81397;BME280;70852;49.908;8.126;2024-02-15T09:17:57;100583.91;;;11.49;87.65
81397;BME280;70852;49.908;8.126;2024-02-15T09:20:25;100587.19;;;11.51;87.16
81397;BME280;70852;49.908;8.126;2024-02-15T09:22:53;100581.19;;;11.57;86.48
81397;BME280;70852;49.908;8.126;2024-02-15T09:25:20;100577.59;;;11.57;86.22
81397;BME280;70852;49.908;8.126;2024-02-15T09:27:46;100576.38;;;11.71;86.98
81397;BME280;70852;49.908;8.126;2024-02-15T09:30:15;100580.47;;;11.74;86.13
81397;BME280;70852;49.908;8.126;2024-02-15T09:32:46;100578.91;;;11.90;86.89
81397;BME280;70852;49.908;8.126;2024-02-15T09:35:16;100570.91;;;11.80;86.64
81397;BME280;70852;49.908;8.126;2024-02-15T09:37:45;100582.97;;;11.93;86.57
81397;BME280;70852;49.908;8.126;2024-02-15T09:40:14;100579.75;;;11.99;86.44
81397;BME280;70852;49.908;8.126;2024-02-15T09:42:41;100580.09;;;12.06;86.14
81397;BME280;70852;49.908;8.126;2024-02-15T09:45:13;100578.69;;;12.26;85.72
81397;BME280;70852;49.908;8.126;2024-02-15T09:47:42;100570.72;;;12.59;84.79
81397;BME280;70852;49.908;8.126;2024-02-15T09:50:09;100569.22;;;12.88;82.89
81397;BME280;70852;49.908;8.126;2024-02-15T09:52:49;100575.53;;;13.40;81.93
81397;BME280;70852;49.908;8.126;2024-02-15T09:55:17;100580.09;;;13.44;79.16
81397;BME280;70852;49.908;8.126;2024-02-15T09:57:44;100575.72;;;13.73;79.26
81397;BME280;70852;49.908;8.126;2024-02-15T10:00:13;100573.75;;;14.32;77.20
81397;BME280;70852;49.908;8.126;2024-02-15T10:02:50;100563.34;;;15.36;73.58
81397;BME280;70852;49.908;8.126;2024-02-15T10:05:18;100571.94;;;16.53;69.91
81397;BME280;70852;49.908;8.126;2024-02-15T10:07:45;100567.41;;;17.01;66.39
81397;BME280;70852;49.908;8.126;2024-02-15T10:12:41;100574.63;;;18.59;62.13
81397;BME280;70852;49.908;8.126;2024-02-15T10:15:11;100575.41;;;18.94;61.42
81397;BME280;70852;49.908;8.126;2024-02-15T10:17:55;100566.47;;;19.08;58.94
81397;BME280;70852;49.908;8.126;2024-02-15T10:20:24;100567.47;;;19.84;57.53
81397;BME280;70852;49.908;8.126;2024-02-15T10:22:52;100568.56;;;19.76;57.12
81397;BME280;70852;49.908;8.126;2024-02-15T10:25:22;100569.31;;;19.31;57.82
81397;BME280;70852;49.908;8.126;2024-02-15T10:27:49;100552.03;;;20.20;55.80
81397;BME280;70852;49.908;8.126;2024-02-15T10:30:16;100550.81;;;19.91;56.52
81397;BME280;70852;49.908;8.126;2024-02-15T10:32:43;100556.22;;;18.58;59.97
81397;BME280;70852;49.908;8.126;2024-02-15T10:35:09;100543.00;;;17.41;62.28
81397;BME280;70852;49.908;8.126;2024-02-15T10:37:37;100544.56;;;17.86;62.23
81397;BME280;70852;49.908;8.126;2024-02-15T10:40:06;100539.22;;;17.81;62.99
81397;BME280;70852;49.908;8.126;2024-02-15T10:42:36;100530.66;;;17.27;65.42
81397;BME280;70852;49.908;8.126;2024-02-15T10:45:05;100535.69;;;16.53;66.54
81397;BME280;70852;49.908;8.126;2024-02-15T10:47:34;100533.47;;;16.99;64.92
81397;BME280;70852;49.908;8.126;2024-02-15T10:50:02;100536.94;;;17.24;64.65
81397;BME280;70852;49.908;8.126;2024-02-15T10:52:31;100535.59;;;16.90;64.20
81397;BME280;70852;49.908;8.126;2024-02-15T10:55:03;100532.41;;;16.75;66.19
81397;BME280;70852;49.908;8.126;2024-02-15T10:57:31;100531.00;;;16.81;65.46
81397;BME280;70852;49.908;8.126;2024-02-15T11:00:01;100528.56;;;17.39;63.48
81397;BME280;70852;49.908;8.126;2024-02-15T11:02:37;100529.38;;;17.24;63.88
81397;BME280;70852;49.908;8.126;2024-02-15T11:05:08;100522.09;;;16.64;65.67
81397;BME280;70852;49.908;8.126;2024-02-15T11:07:36;100518.47;;;16.35;66.24
81397;BME280;70852;49.908;8.126;2024-02-15T11:10:04;100512.69;;;16.16;67.37
81397;BME280;70852;49.908;8.126;2024-02-15T11:12:33;100503.00;;;16.78;65.92
81397;BME280;70852;49.908;8.126;2024-02-15T11:14:59;100502.38;;;16.57;65.54
81397;BME280;70852;49.908;8.126;2024-02-15T11:17:47;100497.88;;;16.80;64.52
81397;BME280;70852;49.908;8.126;2024-02-15T11:23:00;100500.84;;;16.31;68.11
81397;BME280;70852;49.908;8.126;2024-02-15T11:25:38;100492.56;;;16.35;67.93
81397;BME280;70852;49.908;8.126;2024-02-15T11:30:52;100490.59;;;16.35;67.55
81397;BME280;70852;49.908;8.126;2024-02-15T11:33:31;100490.34;;;16.40;67.31
81397;BME280;70852;49.908;8.126;2024-02-15T11:38:31;100481.53;;;15.74;70.34
81397;BME280;70852;49.908;8.126;2024-02-15T11:46:12;100466.59;;;15.54;69.69
81397;BME280;70852;49.908;8.126;2024-02-15T11:48:38;100456.91;;;15.52;71.80
81397;BME280;70852;49.908;8.126;2024-02-15T11:51:07;100460.31;;;15.57;71.17
81397;BME280;70852;49.908;8.126;2024-02-15T11:53:38;100458.66;;;15.44;70.84
81397;BME280;70852;49.908;8.126;2024-02-15T11:56:06;100450.44;;;15.35;72.44
81397;BME280;70852;49.908;8.126;2024-02-15T11:58:35;100452.88;;;15.25;72.72
81397;BME280;70852;49.908;8.126;2024-02-15T12:01:17;100449.13;;;15.09;73.15
81397;BME280;70852;49.908;8.126;2024-02-15T12:04:02;100442.72;;;14.96;73.37
81397;BME280;70852;49.908;8.126;2024-02-15T12:06:46;100441.22;;;14.98;74.10
81397;BME280;70852;49.908;8.126;2024-02-15T12:09:30;100440.88;;;15.00;74.26
81397;BME280;70852;49.908;8.126;2024-02-15T12:12:18;100434.53;;;15.12;75.02
81397;BME280;70852;49.908;8.126;2024-02-15T12:15:03;100431.13;;;14.94;74.75
81397;BME280;70852;49.908;8.126;2024-02-15T12:17:47;100421.66;;;15.07;73.95
81397;BME280;70852;49.908;8.126;2024-02-15T12:20:32;100427.09;;;14.91;73.71
81397;BME280;70852;49.908;8.126;2024-02-15T12:22:57;100418.28;;;14.89;75.10
81397;BME280;70852;49.908;8.126;2024-02-15T12:25:32;100414.38;;;14.57;75.69
81397;BME280;70852;49.908;8.126;2024-02-15T12:27:59;100409.75;;;14.61;75.07
81397;BME280;70852;49.908;8.126;2024-02-15T12:30:26;100412.44;;;14.70;75.27
81397;BME280;70852;49.908;8.126;2024-02-15T12:33:13;100420.13;;;14.52;76.13
81397;BME280;70852;49.908;8.126;2024-02-15T12:35:46;100412.97;;;14.63;75.53
81397;BME280;70852;49.908;8.126;2024-02-15T12:38:13;100407.31;;;14.60;76.14
81397;BME280;70852;49.908;8.126;2024-02-15T12:40:41;100408.09;;;14.48;76.11
81397;BME280;70852;49.908;8.126;2024-02-15T12:43:07;100411.25;;;14.59;76.80
81397;BME280;70852;49.908;8.126;2024-02-15T12:45:35;100408.81;;;14.57;77.18
81397;BME280;70852;49.908;8.126;2024-02-15T12:48:03;100413.22;;;14.58;75.82
81397;BME280;70852;49.908;8.126;2024-02-15T12:50:30;100403.66;;;14.80;76.34
81397;BME280;70852;49.908;8.126;2024-02-15T12:52:55;100403.19;;;14.78;74.39
81397;BME280;70852;49.908;8.126;2024-02-15T12:55:31;100408.00;;;14.57;75.50
81397;BME280;70852;49.908;8.126;2024-02-15T12:58:03;100403.38;;;14.61;74.99
81397;BME280;70852;49.908;8.126;2024-02-15T13:00:34;100404.25;;;14.53;75.24
81397;BME280;70852;49.908;8.126;2024-02-15T13:03:05;100393.41;;;14.60;75.43
81397;BME280;70852;49.908;8.126;2024-02-15T13:05:34;100389.81;;;14.59;74.28
81397;BME280;70852;49.908;8.126;2024-02-15T13:07:59;100400.09;;;14.47;74.76
81397;BME280;70852;49.908;8.126;2024-02-15T13:10:28;100390.63;;;14.27;75.36
81397;BME280;70852;49.908;8.126;2024-02-15T13:12:54;100394.88;;;14.45;75.54
81397;BME280;70852;49.908;8.126;2024-02-15T13:15:21;100391.63;;;14.43;74.90
81397;BME280;70852;49.908;8.126;2024-02-15T13:17:50;100390.19;;;14.37;73.87
81397;BME280;70852;49.908;8.126;2024-02-15T13:20:21;100383.75;;;14.45;75.38
81397;BME280;70852;49.908;8.126;2024-02-15T13:22:55;100370.47;;;14.51;74.94